Time;durP1;ratioP1;P1;durP2;ratioP2;P2;SDS_P1;SDS_P2;PMS_P1;PMS_P2;Temp;Humidity;BMP_temperature;BMP_pressure;BME280_temperature;BME280_humidity;BME280_pressure;Samples;Min_cycle;Max_cycle;Signal;HPM_P1;HPM_P2
2020/12/12 00:00:11;;;;;;;2.60;0.90;;;6.60;99.90;;;;;;5011334;28;20495;-75
2020/12/12 00:02:36;;;;;;;1.55;0.85;;;7.10;99.90;;;;;;5010792;28;20761;-75
2020/12/12 00:05:03;;;;;;;1.20;1.10;;;8.40;99.90;;;;;;5009589;28;20431;-75
2020/12/12 00:07:28;;;;;;;1.25;1.05;;;7.80;99.90;;;;;;5010914;28;20443;-75
2020/12/12 00:09:54;;;;;;;1.10;0.97;;;7.90;99.90;;;;;;5011232;28;20769;-75
2020/12/12 00:12:19;;;;;;;1.20;1.00;;;7.60;99.90;;;;;;5011046;28;20468;-75
2020/12/12 00:14:45;;;;;;;1.00;0.70;;;7.50;99.90;;;;;;5011738;28;20719;-75
2020/12/12 00:17:11;;;;;;;0.90;0.90;;;6.80;99.90;;;;;;5010611;28;20710;-75
2020/12/12 00:19:36;;;;;;;1.20;1.03;;;7.10;99.90;;;;;;5011734;28;20381;-75
2020/12/12 00:22:02;;;;;;;1.40;1.00;;;8.40;99.90;;;;;;5011029;28;20846;-76
2020/12/12 00:24:28;;;;;;;1.80;1.15;;;6.70;99.90;;;;;;5011485;28;20440;-75
2020/12/12 00:26:58;;;;;;;0.88;0.68;;;9.20;99.90;;;;;;5011323;28;20405;-75
2020/12/12 00:29:24;;;;;;;1.50;1.10;;;7.20;99.90;;;;;;5011045;28;20381;-75
2020/12/12 00:31:57;;;;;;;1.40;0.80;;;8.40;99.90;;;;;;4996421;28;20401;-75
2020/12/12 00:34:27;;;;;;;0.80;0.80;;;7.80;99.90;;;;;;4991155;28;20421;-76
2020/12/12 00:36:54;;;;;;;0.70;0.60;;;7.10;99.90;;;;;;4990258;28;20792;-75
2020/12/12 00:39:20;;;;;;;0.93;0.70;;;7.60;99.90;;;;;;4990751;28;20731;-75
2020/12/12 00:41:47;;;;;;;1.10;0.75;;;8.10;99.90;;;;;;4989629;28;20438;-75
2020/12/12 00:44:13;;;;;;;0.75;0.50;;;9.00;99.90;;;;;;4991271;28;20481;-75
2020/12/12 00:46:39;;;;;;;1.33;0.60;;;9.20;99.90;;;;;;4991771;28;20379;-75
2020/12/12 00:49:06;;;;;;;0.50;0.30;;;7.40;99.90;;;;;;4989424;28;20485;-75
2020/12/12 00:51:32;;;;;;;0.60;0.40;;;8.50;99.90;;;;;;4990589;28;20421;-75
2020/12/12 00:53:58;;;;;;;0.70;0.40;;;8.40;99.90;;;;;;4990531;28;20395;-75
2020/12/12 00:56:23;;;;;;;0.70;0.30;;;8.50;99.90;;;;;;4990971;28;20471;-75
2020/12/12 00:58:50;;;;;;;0.40;0.30;;;9.90;99.90;;;;;;4991838;28;20420;-75
2020/12/12 01:01:16;;;;;;;0.50;0.30;;;8.60;99.90;;;;;;4990603;28;20509;-76
2020/12/12 01:03:42;;;;;;;0.40;0.30;;;9.00;99.90;;;;;;4989725;28;20477;-75
2020/12/12 01:06:16;;;;;;;0.40;0.30;;;8.70;99.90;;;;;;4990600;28;20413;-75
2020/12/12 01:08:42;;;;;;;0.50;0.40;;;8.60;99.90;;;;;;4991212;28;20820;-75
2020/12/12 01:11:10;;;;;;;0.50;0.30;;;8.60;99.90;;;;;;4990640;28;20378;-76
2020/12/12 01:13:36;;;;;;;0.70;0.32;;;8.50;99.90;;;;;;4991104;28;20437;-75
2020/12/12 01:16:09;;;;;;;0.50;0.40;;;9.30;99.90;;;;;;4991000;28;20391;-77
2020/12/12 01:18:35;;;;;;;0.40;0.30;;;8.40;99.90;;;;;;4991995;28;20395;-76
2020/12/12 01:21:01;;;;;;;0.40;0.20;;;8.80;99.90;;;;;;4991391;28;20750;-75
2020/12/12 01:23:27;;;;;;;0.50;0.33;;;9.30;99.90;;;;;;4991033;28;20387;-75
2020/12/12 01:25:53;;;;;;;0.40;0.30;;;8.70;99.90;;;;;;4991464;28;20461;-75
2020/12/12 01:28:21;;;;;;;0.40;0.30;;;9.80;99.90;;;;;;4990938;28;20406;-76
2020/12/12 01:30:52;;;;;;;0.40;0.20;;;8.60;99.90;;;;;;4997997;28;20392;-76
2020/12/12 01:33:17;;;;;;;0.50;0.30;;;8.80;99.90;;;;;;5010464;28;20448;-76
2020/12/12 01:35:43;;;;;;;0.50;0.20;;;10.40;99.90;;;;;;5011436;28;20487;-76
2020/12/12 01:38:10;;;;;;;0.40;0.30;;;8.60;99.90;;;;;;5010481;28;20734;-76
2020/12/12 01:40:36;;;;;;;0.40;0.30;;;8.80;99.90;;;;;;5009796;28;20384;-76
2020/12/12 01:43:02;;;;;;;0.50;0.30;;;8.70;99.90;;;;;;5010812;28;20413;-75
2020/12/12 01:45:27;;;;;;;0.40;0.20;;;8.90;99.90;;;;;;5008874;28;20443;-77
2020/12/12 01:47:53;;;;;;;0.40;0.20;;;8.80;99.90;;;;;;5011094;28;20466;-76
2020/12/12 01:50:20;;;;;;;0.40;0.20;;;9.70;99.90;;;;;;5010072;28;20416;-77
2020/12/12 01:52:50;;;;;;;0.50;0.30;;;8.40;99.90;;;;;;5010826;28;20414;-76
2020/12/12 01:55:21;;;;;;;0.40;0.28;;;8.70;99.90;;;;;;5010171;28;20791;-74
2020/12/12 01:57:51;;;;;;;0.40;0.20;;;8.60;99.90;;;;;;5010936;28;20404;-76
2020/12/12 02:00:21;;;;;;;0.40;0.30;;;8.70;99.90;;;;;;5009712;28;20888;-75
2020/12/12 02:02:49;;;;;;;0.50;0.20;;;8.50;99.90;;;;;;5010907;28;20405;-75
2020/12/12 02:05:38;;;;;;;0.40;0.20;;;10.00;99.90;;;;;;5010058;28;20384;-75
2020/12/12 02:08:16;;;;;;;0.40;0.20;;;8.40;99.90;;;;;;5010741;28;20722;-76
2020/12/12 02:10:46;;;;;;;0.40;0.20;;;8.20;99.90;;;;;;5010803;28;20384;-75
2020/12/12 02:13:13;;;;;;;0.40;0.30;;;8.20;99.90;;;;;;5008681;28;20392;-75
2020/12/12 02:15:40;;;;;;;0.70;0.30;;;8.60;99.90;;;;;;5012282;28;20447;-75
2020/12/12 02:18:20;;;;;;;0.40;0.20;;;8.60;99.90;;;;;;5013963;28;20865;-76
2020/12/12 02:20:56;;;;;;;0.40;0.30;;;8.60;99.90;;;;;;5014344;28;20380;-75
2020/12/12 02:23:22;;;;;;;0.40;0.20;;;7.80;99.90;;;;;;5013629;28;20389;-75
2020/12/12 02:25:48;;;;;;;0.40;0.20;;;8.80;99.90;;;;;;5012616;28;20443;-76
2020/12/12 02:28:21;;;;;;;0.40;0.20;;;8.00;99.90;;;;;;5013447;28;20436;-75
2020/12/12 02:30:46;;;;;;;0.40;0.20;;;9.10;99.90;;;;;;5007668;28;20406;-74
2020/12/12 02:33:12;;;;;;;0.40;0.20;;;9.50;99.90;;;;;;4993522;28;20397;-74
2020/12/12 02:35:38;;;;;;;0.40;0.20;;;7.60;99.90;;;;;;4994388;28;20501;-75
2020/12/12 02:38:04;;;;;;;0.40;0.30;;;8.30;99.90;;;;;;4994438;28;20397;-76
2020/12/12 02:40:30;;;;;;;0.40;0.30;;;7.90;99.90;;;;;;4993936;28;21240;-75
2020/12/12 02:42:55;;;;;;;0.40;0.22;;;7.40;99.90;;;;;;4993021;28;20811;-75
2020/12/12 02:45:21;;;;;;;0.40;0.20;;;8.40;99.90;;;;;;4993260;28;20827;-75
2020/12/12 02:47:47;;;;;;;0.40;0.27;;;8.00;99.90;;;;;;4994268;28;20423;-75
2020/12/12 02:50:14;;;;;;;0.40;0.20;;;7.70;99.90;;;;;;4993588;28;20445;-76
2020/12/12 02:52:42;;;;;;;0.40;0.20;;;9.30;99.90;;;;;;4994211;28;20395;-76
2020/12/12 02:55:10;;;;;;;0.50;0.30;;;8.00;99.90;;;;;;4992658;28;20469;-78
2020/12/12 02:57:37;;;;;;;0.40;0.20;;;7.30;99.90;;;;;;4994011;28;20506;-76
2020/12/12 03:00:10;;;;;;;0.40;0.20;;;7.30;99.90;;;;;;4994078;28;20401;-76
2020/12/12 03:02:36;;;;;;;0.50;0.30;;;7.30;99.90;;;;;;4993917;28;20517;-76
2020/12/12 03:05:03;;;;;;;0.50;0.30;;;7.00;99.90;;;;;;4993725;28;20448;-76
2020/12/12 03:07:29;;;;;;;0.40;0.30;;;7.40;99.90;;;;;;4993075;28;20391;-76
2020/12/12 03:09:54;;;;;;;0.40;0.20;;;8.00;99.90;;;;;;4994206;28;20752;-76
2020/12/12 03:12:20;;;;;;;0.40;0.20;;;8.00;99.90;;;;;;4993037;28;20434;-77
2020/12/12 03:14:46;;;;;;;0.40;0.20;;;8.70;99.90;;;;;;4994228;28;20387;-77
2020/12/12 03:17:11;;;;;;;0.40;0.20;;;7.10;99.90;;;;;;4992886;28;20387;-80
2020/12/12 03:19:37;;;;;;;0.40;0.30;;;7.00;99.90;;;;;;4993566;28;20393;-78
2020/12/12 03:22:04;;;;;;;0.40;0.30;;;7.00;99.90;;;;;;4993575;28;20421;-79
2020/12/12 03:24:29;;;;;;;0.57;0.30;;;7.80;99.90;;;;;;4992888;28;20379;-78
2020/12/12 03:26:55;;;;;;;1.40;0.30;;;7.60;99.90;;;;;;4991517;28;20794;-79
2020/12/12 03:29:21;;;;;;;0.60;0.30;;;8.50;99.90;;;;;;4992723;28;20419;-78
2020/12/12 03:31:46;;;;;;;0.47;0.30;;;6.90;99.90;;;;;;5007942;28;20389;-77
2020/12/12 03:34:12;;;;;;;0.50;0.30;;;8.00;99.90;;;;;;5012685;28;20389;-79
2020/12/12 03:36:38;;;;;;;0.40;0.40;;;8.70;99.90;;;;;;5013012;28;20432;-78
2020/12/12 03:39:04;;;;;;;0.50;0.20;;;7.50;99.90;;;;;;5012475;28;20385;-78
2020/12/12 03:41:30;;;;;;;1.10;0.20;;;8.10;99.90;;;;;;5012125;28;20507;-79
2020/12/12 03:43:55;;;;;;;1.40;0.20;;;7.30;99.90;;;;;;5012728;28;20799;-77
2020/12/12 03:46:21;;;;;;;0.40;0.20;;;7.30;99.90;;;;;;5011895;28;20389;-78
2020/12/12 03:48:47;;;;;;;0.40;0.20;;;7.70;99.90;;;;;;5012284;28;20382;-77
2020/12/12 03:51:12;;;;;;;0.40;0.28;;;7.20;99.90;;;;;;5011748;28;20381;-79
2020/12/12 03:53:38;;;;;;;0.50;0.30;;;6.90;99.90;;;;;;5012284;28;20397;-78
2020/12/12 03:56:04;;;;;;;0.40;0.20;;;6.60;99.90;;;;;;5012540;28;20434;-77
2020/12/12 03:58:29;;;;;;;0.40;0.30;;;8.40;99.90;;;;;;5011883;28;20557;-78
2020/12/12 04:00:55;;;;;;;0.50;0.37;;;7.90;99.90;;;;;;5013068;28;20535;-78
2020/12/12 04:03:21;;;;;;;0.40;0.20;;;6.70;99.90;;;;;;5011722;28;20412;-77
2020/12/12 04:05:47;;;;;;;0.40;0.20;;;6.40;99.90;;;;;;5012082;28;20373;-77
2020/12/12 04:08:14;;;;;;;0.40;0.20;;;6.50;99.90;;;;;;5011531;28;20392;-78
2020/12/12 04:10:39;;;;;;;0.40;0.20;;;6.90;99.90;;;;;;5011622;28;20878;-78
2020/12/12 04:13:05;;;;;;;0.40;0.20;;;9.00;99.90;;;;;;5012172;28;20419;-77
2020/12/12 04:15:31;;;;;;;0.40;0.20;;;8.70;99.90;;;;;;5011465;28;20400;-78
2020/12/12 04:17:57;;;;;;;0.40;0.20;;;6.80;99.90;;;;;;5010987;28;20388;-78
2020/12/12 04:20:22;;;;;;;0.40;0.20;;;6.50;99.90;;;;;;5007720;28;20386;-78
2020/12/12 04:22:48;;;;;;;0.50;0.20;;;9.30;99.90;;;;;;5007243;28;20413;-77
2020/12/12 04:25:15;;;;;;;0.80;0.40;;;6.80;99.90;;;;;;5009522;28;20794;-79
2020/12/12 04:27:41;;;;;;;0.40;0.30;;;6.50;99.90;;;;;;5011242;28;20912;-77
2020/12/12 04:30:07;;;;;;;0.40;0.20;;;6.60;99.90;;;;;;5009814;28;20876;-78
2020/12/12 04:32:33;;;;;;;0.40;0.20;;;6.70;99.90;;;;;;5007889;28;20381;-78
2020/12/12 04:34:58;;;;;;;0.40;0.20;;;8.10;99.90;;;;;;5011332;28;20389;-78
2020/12/12 04:37:24;;;;;;;1.60;0.30;;;6.90;99.90;;;;;;5011022;28;20876;-78
2020/12/12 04:39:50;;;;;;;0.50;0.20;;;9.00;99.90;;;;;;5011086;28;20385;-78
2020/12/12 04:42:16;;;;;;;0.40;0.20;;;8.60;99.90;;;;;;5010856;28;20416;-79
2020/12/12 04:44:43;;;;;;;0.40;0.20;;;8.10;99.90;;;;;;5011596;28;20381;-78
2020/12/12 04:47:11;;;;;;;0.52;0.32;;;7.30;99.90;;;;;;5010229;28;20893;-78
2020/12/12 04:49:37;;;;;;;0.40;0.30;;;6.60;99.90;;;;;;5010724;28;20389;-78
2020/12/12 04:52:04;;;;;;;0.40;0.20;;;6.80;99.90;;;;;;5011093;28;20813;-76
2020/12/12 04:54:33;;;;;;;1.30;0.20;;;7.90;99.90;;;;;;5009778;28;20873;-77
2020/12/12 04:57:02;;;;;;;0.40;0.20;;;8.80;99.90;;;;;;5010778;28;20417;-78
2020/12/12 04:59:30;;;;;;;0.40;0.20;;;7.30;99.90;;;;;;5010688;28;20841;-78
2020/12/12 05:02:01;;;;;;;0.50;0.20;;;8.80;99.90;;;;;;5011261;28;20456;-76
2020/12/12 05:04:27;;;;;;;0.40;0.20;;;6.80;99.90;;;;;;5010579;28;20388;-78
2020/12/12 05:06:53;;;;;;;1.30;0.40;;;8.70;99.90;;;;;;5011363;28;20396;-78
2020/12/12 05:09:19;;;;;;;0.40;0.20;;;;;;;;;;5010059;28;20422;-78
2020/12/12 05:11:48;;;;;;;0.40;0.20;;;7.10;99.90;;;;;;5010797;28;20792;-76
2020/12/12 05:14:15;;;;;;;0.43;0.30;;;7.30;99.90;;;;;;5010429;28;20396;-77
2020/12/12 05:16:45;;;;;;;0.40;0.20;;;8.30;99.90;;;;;;5010597;28;20428;-78
2020/12/12 05:19:12;;;;;;;0.40;0.20;;;6.90;99.90;;;;;;5011338;28;20385;-76
2020/12/12 05:21:54;;;;;;;0.40;0.20;;;7.10;99.90;;;;;;5010069;28;20459;-77
2020/12/12 05:24:24;;;;;;;0.40;0.20;;;7.00;99.90;;;;;;5009483;28;20455;-78
2020/12/12 05:26:49;;;;;;;0.60;0.22;;;7.20;99.90;;;;;;5010798;28;20909;-77
2020/12/12 05:29:15;;;;;;;0.53;0.30;;;9.00;99.90;;;;;;5010827;28;20391;-78
2020/12/12 05:31:42;;;;;;;0.40;0.20;;;7.60;99.90;;;;;;5010831;28;20507;-78
2020/12/12 05:34:15;;;;;;;1.88;0.30;;;7.70;99.90;;;;;;5011163;28;20807;-77
2020/12/12 05:36:43;;;;;;;0.50;0.30;;;7.10;99.90;;;;;;5010682;28;20385;-78
2020/12/12 05:39:14;;;;;;;0.40;0.30;;;7.00;99.90;;;;;;5010949;28;20381;-78
2020/12/12 05:41:41;;;;;;;0.40;0.20;;;7.00;99.90;;;;;;5010221;28;20412;-78
2020/12/12 05:44:07;;;;;;;0.40;0.20;;;6.90;99.90;;;;;;5010869;28;20789;-78
2020/12/12 05:46:33;;;;;;;1.20;0.30;;;7.50;99.90;;;;;;5010402;28;20935;-77
2020/12/12 05:49:00;;;;;;;0.73;0.20;;;7.20;99.90;;;;;;5011053;28;20380;-78
2020/12/12 05:51:29;;;;;;;0.40;0.30;;;8.70;99.90;;;;;;5013193;28;20443;-77
2020/12/12 05:53:56;;;;;;;0.40;0.20;;;8.10;99.90;;;;;;5014820;28;20936;-78
2020/12/12 05:56:26;;;;;;;0.70;0.25;;;7.80;99.90;;;;;;5013129;28;20439;-78
2020/12/12 05:58:55;;;;;;;0.40;0.20;;;8.70;99.90;;;;;;5015178;28;20400;-77
2020/12/12 06:01:23;;;;;;;0.50;0.30;;;7.20;99.90;;;;;;5013929;28;20404;-79
2020/12/12 06:03:51;;;;;;;0.80;0.40;;;8.20;99.90;;;;;;5014837;28;20381;-78
2020/12/12 06:06:23;;;;;;;0.50;0.30;;;8.20;99.90;;;;;;5014698;28;20494;-80
2020/12/12 06:09:07;;;;;;;0.40;0.30;;;8.10;99.90;;;;;;5014905;28;20393;-78
2020/12/12 06:11:36;;;;;;;0.80;0.40;;;7.20;99.90;;;;;;5014204;28;20454;-78
2020/12/12 06:14:04;;;;;;;0.50;0.30;;;7.20;99.90;;;;;;5014414;28;20384;-78
2020/12/12 06:16:32;;;;;;;1.00;0.30;;;8.10;99.90;;;;;;5014387;28;20381;-79
2020/12/12 06:19:11;;;;;;;0.40;0.30;;;8.10;99.90;;;;;;5014536;28;20412;-79
2020/12/12 06:21:42;;;;;;;0.40;0.30;;;6.90;99.90;;;;;;5013715;28;20714;-77
2020/12/12 06:24:13;;;;;;;0.40;0.30;;;7.20;99.90;;;;;;5013370;28;20428;-78
2020/12/12 06:27:04;;;;;;;1.20;0.50;;;7.30;99.90;;;;;;5013280;28;20951;-78
2020/12/12 06:29:37;;;;;;;0.40;0.20;;;7.40;99.90;;;;;;5012135;28;20408;-78
2020/12/12 06:32:04;;;;;;;0.40;0.28;;;7.20;99.90;;;;;;5014564;28;20392;-78
2020/12/12 06:34:39;;;;;;;0.50;0.40;;;7.80;99.90;;;;;;5012299;28;20393;-79
2020/12/12 06:37:05;;;;;;;0.70;0.50;;;7.60;99.90;;;;;;5014712;28;20397;-78
2020/12/12 06:39:30;;;;;;;3.33;1.33;;;7.70;99.90;;;;;;5013437;28;20389;-77
2020/12/12 06:41:57;;;;;;;1.53;1.17;;;7.50;99.90;;;;;;5013913;28;20470;-77
2020/12/12 06:44:37;;;;;;;1.63;0.70;;;8.70;99.90;;;;;;5013211;28;20377;-79
2020/12/12 06:47:05;;;;;;;0.65;0.50;;;7.40;99.90;;;;;;5014114;28;20524;-77
2020/12/12 06:49:31;;;;;;;0.50;0.40;;;7.20;99.90;;;;;;5011900;28;20400;-78
2020/12/12 06:51:57;;;;;;;0.88;0.40;;;8.70;99.90;;;;;;5012722;28;20397;-78
2020/12/12 06:54:23;;;;;;;0.93;0.40;;;9.00;99.90;;;;;;5012005;28;20391;-78
2020/12/12 06:56:49;;;;;;;2.20;0.60;;;7.20;99.90;;;;;;5013811;28;20439;-77
2020/12/12 06:59:37;;;;;;;0.50;0.30;;;8.80;99.90;;;;;;5012718;28;20816;-80
2020/12/12 07:02:05;;;;;;;1.38;0.45;;;7.30;99.90;;;;;;5013127;28;20733;-79
2020/12/12 07:04:33;;;;;;;1.00;0.40;;;7.90;99.90;;;;;;5013080;28;20420;-79
2020/12/12 07:07:07;;;;;;;0.50;0.50;;;7.20;99.90;;;;;;5013793;28;20396;-78
2020/12/12 07:09:34;;;;;;;2.20;0.45;;;7.40;99.90;;;;;;5012887;28;20393;-79
2020/12/12 07:12:00;;;;;;;0.70;0.60;;;9.50;99.90;;;;;;5014006;28;20459;-79
2020/12/12 07:14:26;;;;;;;0.60;0.30;;;7.70;99.90;;;;;;5013556;28;20385;-80
2020/12/12 07:16:54;;;;;;;1.88;0.50;;;9.20;99.90;;;;;;5014719;28;20800;-79
2020/12/12 07:19:33;;;;;;;0.50;0.40;;;8.10;99.90;;;;;;5014210;28;20467;-79
2020/12/12 07:22:00;;;;;;;1.70;0.88;;;9.50;99.90;;;;;;5013606;28;20507;-79
2020/12/12 07:24:26;;;;;;;1.23;0.43;;;7.80;99.90;;;;;;5012873;28;20392;-80
2020/12/12 07:26:53;;;;;;;1.52;1.05;;;8.50;99.90;;;;;;5013603;28;20440;-79
2020/12/12 07:29:19;;;;;;;0.50;0.40;;;7.80;99.90;;;;;;5012155;28;20878;-79
2020/12/12 07:31:45;;;;;;;0.60;0.40;;;7.40;99.90;;;;;;4998197;28;20612;-79
2020/12/12 07:34:15;;;;;;;1.40;0.50;;;8.60;99.90;;;;;;4992257;28;20433;-80
2020/12/12 07:36:41;;;;;;;1.50;0.70;;;9.20;99.90;;;;;;4992825;28;20414;-79
2020/12/12 07:39:08;;;;;;;0.60;0.50;;;9.00;99.90;;;;;;4993725;28;20399;-76
2020/12/12 07:41:44;;;;;;;0.60;0.50;;;7.60;99.90;;;;;;4991516;28;20504;-79
2020/12/12 07:44:10;;;;;;;1.50;0.50;;;7.50;99.90;;;;;;4993762;28;20374;-78
2020/12/12 07:46:40;;;;;;;1.40;0.50;;;7.80;99.90;;;;;;4991435;28;20387;-78
2020/12/12 07:49:07;;;;;;;1.65;0.60;;;7.80;99.90;;;;;;4992352;28;20398;-77
2020/12/12 07:51:34;;;;;;;0.75;0.50;;;7.70;99.90;;;;;;4992854;28;20433;-78
2020/12/12 07:54:10;;;;;;;0.93;0.63;;;9.30;99.90;;;;;;4993537;28;20903;-78
2020/12/12 07:56:36;;;;;;;0.50;0.32;;;8.60;99.90;;;;;;4991491;28;20438;-79
2020/12/12 07:59:06;;;;;;;0.80;0.40;;;7.70;99.90;;;;;;4993201;28;20883;-78
2020/12/12 08:01:32;;;;;;;0.60;0.40;;;7.90;99.90;;;;;;4992522;28;20465;-79
2020/12/12 08:03:58;;;;;;;0.55;0.40;;;7.60;99.90;;;;;;4993206;28;20383;-78
2020/12/12 08:06:27;;;;;;;0.93;0.40;;;7.80;99.90;;;;;;4991604;28;20391;-78
2020/12/12 08:08:56;;;;;;;0.50;0.35;;;8.30;99.90;;;;;;4993023;28;20383;-77
2020/12/12 08:11:22;;;;;;;1.30;0.60;;;8.20;99.90;;;;;;4992957;28;20481;-76
2020/12/12 08:13:49;;;;;;;0.93;0.60;;;7.90;99.90;;;;;;4990903;28;20982;-77
2020/12/12 08:16:29;;;;;;;0.50;0.40;;;7.80;99.90;;;;;;4992096;28;20430;-77
2020/12/12 08:19:05;;;;;;;0.65;0.43;;;8.50;99.90;;;;;;4992863;28;20405;-78
2020/12/12 08:21:31;;;;;;;0.73;0.30;;;7.90;99.90;;;;;;4991508;28;20780;-78
2020/12/12 08:23:57;;;;;;;0.40;0.30;;;9.70;99.90;;;;;;4992703;28;20397;-77
2020/12/12 08:26:23;;;;;;;0.90;0.40;;;7.80;99.90;;;;;;4990758;28;20478;-77
2020/12/12 08:28:49;;;;;;;0.88;0.50;;;9.50;99.90;;;;;;4991983;28;20462;-78
2020/12/12 08:31:17;;;;;;;0.40;0.30;;;8.20;99.90;;;;;;5001560;28;20403;-77
2020/12/12 08:33:45;;;;;;;0.80;0.60;;;8.60;99.90;;;;;;5011078;28;20392;-77
2020/12/12 08:36:19;;;;;;;0.80;0.50;;;8.00;99.90;;;;;;5010801;28;20850;-77
2020/12/12 08:38:56;;;;;;;0.70;0.40;;;8.00;99.90;;;;;;5011256;28;20865;-78
2020/12/12 08:41:31;;;;;;;0.60;0.38;;;9.00;99.90;;;;;;5012104;28;20385;-77
2020/12/12 08:43:57;;;;;;;0.50;0.30;;;9.20;99.90;;;;;;5012221;28;20385;-77
2020/12/12 08:46:24;;;;;;;0.40;0.30;;;8.70;99.90;;;;;;5011748;28;20385;-77
2020/12/12 08:48:50;;;;;;;0.50;0.30;;;9.30;99.90;;;;;;5011234;28;21096;-77
2020/12/12 08:51:23;;;;;;;1.20;0.40;;;8.40;99.90;;;;;;5011761;28;20384;-79
2020/12/12 08:53:50;;;;;;;0.40;0.30;;;8.30;99.90;;;;;;5011323;28;20788;-77
2020/12/12 08:56:22;;;;;;;0.60;0.30;;;8.60;99.90;;;;;;5011927;28;20439;-76
2020/12/12 08:58:49;;;;;;;1.00;0.40;;;8.20;99.90;;;;;;5010595;28;20514;-77
2020/12/12 09:01:17;;;;;;;0.40;0.30;;;9.90;99.90;;;;;;5011448;28;20385;-75
2020/12/12 09:03:59;;;;;;;0.50;0.40;;;8.40;99.90;;;;;;5011559;28;20392;-75
2020/12/12 09:06:27;;;;;;;0.50;0.40;;;8.30;99.90;;;;;;5011283;28;20396;-76
2020/12/12 09:09:07;;;;;;;1.00;0.40;;;8.10;99.90;;;;;;5010906;28;20468;-76
2020/12/12 09:11:33;;;;;;;0.40;0.40;;;8.40;99.90;;;;;;5010629;28;20384;-78
2020/12/12 09:14:02;;;;;;;0.60;0.40;;;8.80;99.90;;;;;;5011674;28;20480;-76
2020/12/12 09:16:28;;;;;;;0.60;0.30;;;8.10;99.90;;;;;;5011291;28;20388;-77
2020/12/12 09:18:54;;;;;;;0.60;0.40;;;8.30;99.90;;;;;;5010709;28;20387;-77
2020/12/12 09:21:20;;;;;;;0.50;0.30;;;8.80;99.90;;;;;;5011473;28;20778;-77
2020/12/12 09:23:46;;;;;;;0.40;0.30;;;8.20;99.90;;;;;;5010350;28;20385;-76
2020/12/12 09:26:12;;;;;;;0.63;0.40;;;8.40;99.90;;;;;;5010802;28;20516;-75
2020/12/12 09:28:38;;;;;;;0.60;0.40;;;8.40;99.90;;;;;;5010661;28;20424;-77
2020/12/12 09:31:04;;;;;;;1.20;0.40;;;8.60;99.90;;;;;;5002178;28;20394;-77
2020/12/12 09:33:30;;;;;;;0.60;0.50;;;9.10;99.90;;;;;;4991140;28;20798;-77
2020/12/12 09:35:56;;;;;;;0.40;0.25;;;9.60;99.90;;;;;;4991016;28;20424;-76
2020/12/12 09:38:22;;;;;;;0.60;0.30;;;8.30;99.90;;;;;;4991560;28;20851;-76
2020/12/12 09:40:52;;;;;;;0.40;0.30;;;8.10;99.90;;;;;;5003190;28;20396;-77
2020/12/12 09:43:19;;;;;;;0.40;0.30;;;8.40;99.90;;;;;;5011138;28;20427;-76
2020/12/12 09:45:48;;;;;;;0.55;0.32;;;8.40;99.90;;;;;;5010450;28;20866;-75
2020/12/12 09:48:14;;;;;;;0.80;0.40;;;8.40;99.90;;;;;;5010342;28;20397;-75
2020/12/12 09:50:41;;;;;;;0.40;0.30;;;8.50;99.90;;;;;;5010196;28;20401;-75
2020/12/12 09:53:08;;;;;;;0.50;0.40;;;8.50;99.90;;;;;;5009656;28;20415;-76
2020/12/12 09:55:36;;;;;;;0.60;0.50;;;8.40;99.90;;;;;;5010459;28;20496;-77
2020/12/12 09:58:05;;;;;;;0.50;0.40;;;8.60;99.90;;;;;;5010764;28;20778;-78
2020/12/12 10:00:34;;;;;;;0.40;0.30;;;8.50;99.90;;;;;;5011136;28;20388;-76
2020/12/12 10:03:00;;;;;;;0.50;0.30;;;8.60;99.90;;;;;;5010385;28;20409;-76
2020/12/12 10:05:25;;;;;;;0.50;0.40;;;8.60;99.90;;;;;;5010866;28;20781;-77
2020/12/12 10:07:54;;;;;;;0.63;0.30;;;9.80;99.90;;;;;;5009821;28;21176;-76
2020/12/12 10:10:20;;;;;;;0.40;0.30;;;8.80;99.90;;;;;;5010910;28;20820;-76
2020/12/12 10:12:46;;;;;;;0.60;0.30;;;8.70;99.90;;;;;;5010002;28;20446;-76
2020/12/12 10:15:11;;;;;;;0.60;0.30;;;8.90;99.90;;;;;;5010764;28;20392;-76
2020/12/12 10:17:39;;;;;;;0.60;0.40;;;9.00;99.90;;;;;;5008862;28;20389;-77
2020/12/12 10:20:04;;;;;;;1.30;0.30;;;8.90;99.90;;;;;;5004519;28;20392;-76
2020/12/12 10:22:30;;;;;;;0.60;0.40;;;8.40;99.90;;;;;;5010195;28;20412;-77
2020/12/12 10:24:56;;;;;;;0.60;0.50;;;8.80;99.90;;;;;;5009277;28;20396;-76
2020/12/12 10:27:21;;;;;;;0.60;0.40;;;8.80;99.90;;;;;;5010144;28;20428;-75
2020/12/12 10:29:47;;;;;;;0.40;0.30;;;8.70;99.90;;;;;;5007982;28;20385;-76
2020/12/12 10:32:13;;;;;;;0.40;0.30;;;8.70;99.90;;;;;;4992045;28;20759;-76
2020/12/12 10:34:38;;;;;;;0.70;0.40;;;8.80;99.90;;;;;;4991600;28;20912;-78
2020/12/12 10:37:06;;;;;;;0.40;0.30;;;8.90;99.90;;;;;;5004846;28;20402;-75
2020/12/12 10:39:35;;;;;;;0.40;0.30;;;9.30;99.90;;;;;;4998314;28;20731;-75
2020/12/12 10:42:01;;;;;;;0.40;0.30;;;8.90;99.90;;;;;;5012786;28;20503;-77
2020/12/12 10:44:27;;;;;;;0.77;0.40;;;8.90;99.90;;;;;;5013336;28;20543;-77
2020/12/12 10:46:53;;;;;;;0.50;0.38;;;8.90;99.90;;;;;;5012478;28;20832;-77
2020/12/12 10:49:19;;;;;;;0.50;0.30;;;9.00;99.90;;;;;;5013092;28;20865;-76
2020/12/12 10:51:53;;;;;;;1.10;0.35;;;9.30;99.90;;;;;;5011797;28;20475;-77
2020/12/12 10:54:19;;;;;;;0.60;0.40;;;9.20;99.90;;;;;;5010875;28;20411;-76
2020/12/12 10:56:46;;;;;;;0.40;0.30;;;9.40;99.90;;;;;;5012333;28;20717;-76
2020/12/12 10:59:12;;;;;;;1.30;0.40;;;9.70;99.90;;;;;;5013033;28;20480;-75
2020/12/12 11:01:38;;;;;;;0.70;0.40;;;10.20;99.90;;;;;;5009501;28;20817;-76
2020/12/12 11:04:05;;;;;;;0.50;0.30;;;9.80;99.90;;;;;;5012751;28;20443;-76
2020/12/12 11:06:32;;;;;;;0.40;0.30;;;9.80;99.90;;;;;;5013093;28;20412;-76
2020/12/12 11:09:01;;;;;;;0.50;0.30;;;9.90;99.90;;;;;;5009532;28;20384;-76
2020/12/12 11:11:26;;;;;;;0.70;0.40;;;10.00;99.90;;;;;;5011708;28;20377;-75
2020/12/12 11:13:52;;;;;;;0.40;0.30;;;10.60;99.90;;;;;;5011471;28;20889;-76
2020/12/12 11:16:22;;;;;;;0.60;0.50;;;10.40;99.90;;;;;;5012673;28;20413;-76
2020/12/12 11:18:50;;;;;;;0.40;0.30;;;10.30;99.90;;;;;;5011818;28;20447;-77
2020/12/12 11:21:20;;;;;;;0.80;0.40;;;10.10;99.90;;;;;;5012580;28;20396;-76
2020/12/12 11:23:46;;;;;;;1.10;0.30;;;10.60;99.90;;;;;;5011788;28;20450;-76
2020/12/12 11:26:12;;;;;;;0.40;0.20;;;10.20;99.90;;;;;;5012196;28;21696;-76
2020/12/12 11:28:39;;;;;;;0.68;0.40;;;10.70;99.40;;;;;;5009194;28;20498;-77
2020/12/12 11:31:05;;;;;;;0.50;0.30;;;11.50;99.90;;;;;;5009531;28;20420;-76
2020/12/12 11:33:31;;;;;;;0.50;0.30;;;11.50;99.90;;;;;;5012577;28;20409;-76
2020/12/12 11:38:53;;;;;;;0.50;0.30;;;11.00;96.50;;;;;;5009523;28;20381;-76
2020/12/12 11:46:36;;;;;;;0.80;0.40;;;11.50;95.80;;;;;;5011303;28;20376;-75
2020/12/12 11:49:05;;;;;;;0.90;0.50;;;11.50;95.80;;;;;;5009274;28;20476;-77
2020/12/12 11:51:38;;;;;;;0.50;0.40;;;12.50;97.80;;;;;;5011796;28;20380;-77
2020/12/12 11:54:07;;;;;;;0.50;0.30;;;12.90;95.40;;;;;;5010110;28;20389;-76
2020/12/12 11:56:33;;;;;;;0.40;0.40;;;13.10;93.50;;;;;;5011891;28;20555;-75
2020/12/12 11:58:59;;;;;;;0.40;0.30;;;12.00;93.30;;;;;;5010978;28;20397;-76
2020/12/12 12:01:26;;;;;;;0.40;0.30;;;11.70;98.20;;;;;;5012039;28;20393;-75
2020/12/12 12:03:53;;;;;;;0.40;0.30;;;11.40;97.10;;;;;;5010844;28;20393;-76
2020/12/12 12:06:20;;;;;;;1.00;0.50;;;11.10;98.50;;;;;;5008130;28;20762;-76
2020/12/12 12:11:31;;;;;;;1.38;0.40;;;10.30;98.10;;;;;;5011232;28;20480;-75
2020/12/12 12:14:11;;;;;;;0.60;0.40;;;10.70;98.80;;;;;;5010980;28;20684;-75
2020/12/12 12:16:39;;;;;;;0.70;0.40;;;10.20;99.90;;;;;;5007472;28;20435;-78
2020/12/12 12:19:12;;;;;;;0.40;0.35;;;10.30;98.90;;;;;;5009172;28;20481;-74
2020/12/12 12:21:39;;;;;;;0.65;0.35;;;10.20;99.90;;;;;;5010941;28;20963;-76
2020/12/12 12:24:07;;;;;;;0.80;0.30;;;10.90;99.90;;;;;;5009179;28;20439;-74
2020/12/12 12:26:34;;;;;;;0.47;0.30;;;10.10;99.50;;;;;;5011364;28;20757;-74
2020/12/12 12:29:08;;;;;;;0.60;0.40;;;10.00;99.80;;;;;;5010144;28;20424;-74
2020/12/12 12:31:35;;;;;;;0.40;0.30;;;9.90;99.90;;;;;;5006766;28;20476;-74
2020/12/12 12:34:01;;;;;;;0.60;0.40;;;10.30;99.90;;;;;;5010986;28;20384;-74
2020/12/12 12:36:29;;;;;;;0.85;0.40;;;9.70;99.90;;;;;;5010026;28;20412;-74
2020/12/12 12:38:56;;;;;;;0.60;0.40;;;9.70;99.90;;;;;;5010390;28;20381;-74
2020/12/12 12:41:22;;;;;;;0.40;0.30;;;9.70;99.90;;;;;;5011314;28;20413;-73
2020/12/12 12:43:51;;;;;;;0.40;0.30;;;9.80;99.90;;;;;;5009598;28;20817;-74
2020/12/12 12:46:26;;;;;;;0.40;0.30;;;9.50;99.90;;;;;;5011173;28;20385;-73
2020/12/12 12:48:51;;;;;;;0.40;0.30;;;9.80;99.90;;;;;;5010598;28;20419;-75
2020/12/12 12:51:17;;;;;;;1.40;0.30;;;9.90;99.90;;;;;;5011965;28;20385;-74
2020/12/12 12:53:43;;;;;;;0.60;0.50;;;9.70;99.90;;;;;;5011202;28;20780;-77
2020/12/12 12:56:08;;;;;;;0.50;0.30;;;9.70;99.90;;;;;;5010385;28;20474;-74
2020/12/12 12:58:34;;;;;;;0.40;0.30;;;9.60;99.90;;;;;;5012053;28;20409;-73
2020/12/12 13:01:00;;;;;;;0.50;0.30;;;10.30;99.90;;;;;;5006261;28;21241;-74
2020/12/12 13:03:25;;;;;;;2.40;0.40;;;10.20;99.90;;;;;;5009728;28;20440;-74
2020/12/12 13:05:51;;;;;;;0.60;0.50;;;9.60;99.90;;;;;;5010905;28;20484;-74
2020/12/12 13:08:17;;;;;;;0.50;0.40;;;9.60;99.90;;;;;;5011679;28;20738;-74